»·PEaware :: N24TM KPUC-N24

N24TM :: KPUC-N24

FLIGHT INFORMATION

Flight Status: Arrived
Operator: Privately registered:
United States
More flights under this callsign
Pilot: Dave M. (4986)
Aircraft: SAAB 105
(SB05)
More flights by this aircraft type
Origin: KPUC Carbon Co
United States
Destination: N24 Questa Mun Nr 2
United States
More flights between these airports :: More routes between these airports
Route: COPUK V134 JNC V484 ALS
File this flight plan on PilotEdge
Remarks: Alphabet Challenge - WUS #16
Altitude:
(Current/Filed)
19,000ft
Speed:
(Current/Filed)
450kts
Departed: 16-Mar-17 12:55 PM
Arrived: 16-Mar-17 01:47 PM
Distance/Time
Traveled:
296nm/0:52
Distance/Time
To Go:
Arrived

Flight Plot

Page will automatically refresh every two minutes.

Flight plan parsing failed; only flown route is shown


Map Options




Map Legend


Flown Route
Filed Route
Departure Airport
Arrival Airport
Navaid (VOR, NDB)
Fix

Horizontal Profiles

Position Reports

Time Latitude Longitude Heading Altitude Ground
Speed
16-Mar-17 12:30 39.610083 -110.750537 198 5956ft 0kts
16-Mar-17 12:31 39.610072 -110.750542 198 5956ft 0kts
16-Mar-17 12:32 39.610060 -110.750547 198 5956ft 0kts
16-Mar-17 12:33 39.610049 -110.750552 198 5956ft 0kts
16-Mar-17 12:34 39.610037 -110.750557 198 5956ft 0kts
16-Mar-17 12:35 39.610026 -110.750562 198 5956ft 0kts
16-Mar-17 12:36 39.610015 -110.750567 198 5956ft 0kts
16-Mar-17 12:37 39.610003 -110.750572 198 5956ft 0kts
16-Mar-17 12:38 39.609992 -110.750577 198 5956ft 0kts
16-Mar-17 12:39 39.609981 -110.750581 198 5956ft 0kts
16-Mar-17 12:40 39.609969 -110.750586 198 5956ft 0kts
16-Mar-17 12:41 39.609958 -110.750591 198 5956ft 0kts
16-Mar-17 12:42 39.609947 -110.750596 198 5956ft 0kts
16-Mar-17 12:43 39.609935 -110.750601 198 5956ft 0kts
16-Mar-17 12:44 39.609924 -110.750606 198 5956ft 0kts
16-Mar-17 12:45 39.609912 -110.750611 198 5956ft 0kts
16-Mar-17 12:46 39.609901 -110.750616 198 5956ft 0kts
16-Mar-17 12:47 39.609889 -110.750621 198 5956ft 0kts
16-Mar-17 12:48 39.609878 -110.750626 198 5956ft 0kts
16-Mar-17 12:49 39.609799 -110.750733 253 5956ft 2kts
16-Mar-17 12:50 39.611193 -110.751105 350 5956ft 9kts
16-Mar-17 12:51 39.614778 -110.749870 18 5956ft 16kts
16-Mar-17 12:52 39.619526 -110.747785 17 5956ft 19kts
16-Mar-17 12:53 39.624820 -110.745480 18 5956ft 16kts
16-Mar-17 12:54 39.626278 -110.745410 290 5956ft 0kts
16-Mar-17 12:55 39.626311 -110.745999 215 5956ft 5kts
16-Mar-17 12:56 39.589221 -110.762223 199 7018ft 256kts
16-Mar-17 12:57 39.529353 -110.720876 104 10121ft 282kts
16-Mar-17 12:58 39.529316 -110.619358 88 12836ft 306kts
16-Mar-17 12:59 39.524914 -110.493652 98 16297ft 387kts
16-Mar-17 13:00 39.495410 -110.353513 108 19259ft 438kts
16-Mar-17 13:01 39.454139 -110.192723 110 19233ft 492kts
16-Mar-17 13:02 39.408077 -110.024303 110 19226ft 498kts
16-Mar-17 13:03 39.361883 -109.855597 109 19216ft 499kts
16-Mar-17 13:04 39.315763 -109.687312 109 19215ft 497kts
16-Mar-17 13:05 39.269747 -109.519517 109 19214ft 496kts
16-Mar-17 13:06 39.223631 -109.351464 109 19213ft 496kts
16-Mar-17 13:07 39.177692 -109.184160 109 19221ft 495kts
16-Mar-17 13:08 39.131762 -109.017113 110 19225ft 496kts
16-Mar-17 13:09 39.082091 -108.851511 111 19228ft 497kts
16-Mar-17 13:10 39.031933 -108.686408 113 19231ft 496kts
16-Mar-17 13:11 38.974854 -108.524724 114 19236ft 496kts
16-Mar-17 13:12 38.917965 -108.363858 114 19239ft 495kts
16-Mar-17 13:13 38.861077 -108.203128 114 19255ft 495kts
16-Mar-17 13:14 38.804249 -108.042691 114 19273ft 494kts
16-Mar-17 13:15 38.747691 -107.883131 114 19286ft 493kts
16-Mar-17 13:16 38.690931 -107.723128 114 19316ft 491kts
16-Mar-17 13:17 38.634513 -107.564209 114 19338ft 492kts
16-Mar-17 13:18 38.578073 -107.405357 114 19365ft 491kts
16-Mar-17 13:19 38.521719 -107.246862 114 19390ft 491kts
16-Mar-17 13:20 38.465180 -107.087967 114 19402ft 491kts
16-Mar-17 13:21 38.411858 -106.927852 110 19407ft 492kts
16-Mar-17 13:22 38.363664 -106.764890 110 19405ft 492kts
16-Mar-17 13:23 38.315491 -106.602104 110 19399ft 491kts
16-Mar-17 13:24 38.267422 -106.439779 110 19390ft 490kts
16-Mar-17 13:25 38.198880 -106.291403 130 19381ft 489kts
16-Mar-17 13:26 38.101445 -106.178295 161 18669ft 460kts
16-Mar-17 13:27 37.987475 -106.126194 162 15885ft 428kts
16-Mar-17 13:28 37.876630 -106.077216 164 15350ft 424kts
16-Mar-17 13:29 37.764821 -106.026341 157 15343ft 429kts
16-Mar-17 13:30 37.656221 -105.964444 157 15340ft 429kts
16-Mar-17 13:31 37.556177 -105.907060 157 15326ft 359kts
16-Mar-17 13:32 37.469327 -105.856582 157 15329ft 335kts
16-Mar-17 13:33 37.385525 -105.807756 157 15071ft 335kts
16-Mar-17 13:34 37.297290 -105.770647 170 14524ft 334kts
16-Mar-17 13:35 37.206362 -105.748291 172 14047ft 330kts
16-Mar-17 13:36 37.114976 -105.729699 174 13231ft 336kts
16-Mar-17 13:37 37.022772 -105.712487 174 12462ft 333kts
16-Mar-17 13:38 36.931406 -105.695867 174 11917ft 328kts
16-Mar-17 13:39 36.855494 -105.659761 142 11197ft 239kts
16-Mar-17 13:40 36.802615 -105.630766 180 9501ft 197kts
16-Mar-17 13:41 36.767343 -105.611600 97 9070ft 134kts
16-Mar-17 13:42 36.804121 -105.597549 357 7850ft 207kts
16-Mar-17 13:43 36.845888 -105.623884 262 9976ft 189kts
16-Mar-17 13:44 36.799470 -105.641102 183 10306ft 190kts
16-Mar-17 13:45 36.747531 -105.639187 148 9791ft 171kts
16-Mar-17 13:46 36.757489 -105.596835 14 8650ft 171kts
16-Mar-17 13:47 36.796568 -105.597502 358 7694ft 103kts
16-Mar-17 13:48 36.798648 -105.597492 179 7693ft 33kts
16-Mar-17 13:49 36.794240 -105.599181 164 7693ft 7kts
16-Mar-17 13:50 36.794217 -105.599032 97 7694ft 0kts
16-Mar-17 13:51 36.794217 -105.599032 97 7694ft 0kts
16-Mar-17 13:52 36.794217 -105.599032 97 7694ft 0kts
16-Mar-17 13:53 36.794217 -105.599032 97 7694ft 0kts
16-Mar-17 13:54 36.794217 -105.599032 97 7694ft 0kts
16-Mar-17 13:55 36.794217 -105.599032 97 7694ft 0kts
16-Mar-17 13:56 36.794217 -105.599032 97 7694ft 0kts
16-Mar-17 13:57 36.794217 -105.599032 97 7694ft 0kts
16-Mar-17 13:58 36.794217 -105.599032 97 7694ft 0kts
16-Mar-17 13:59 36.794217 -105.599032 97 7694ft 0kts
16-Mar-17 14:00 36.794217 -105.599032 97 7694ft 0kts
16-Mar-17 14:01 36.794217 -105.599032 97 7694ft 0kts
16-Mar-17 14:02 36.794217 -105.599032 97 7694ft 0kts

Navigation Log

Ident Type
Flight plan parsing failed, navigation log unavailable